Roosevelt, Minnesota
Current Conditions -  °F | °C
As of 8:13 AM on Thursday 29 Jan 2015 (Local Time) from KRRT Reporting Station
Broken Clouds Broken Clouds  
Wind Chill: -12°   Ceiling: 1700
Heat Index:   Visibility: 10mi
Dew Point:   Wind: 13mph
Humidity: 78%   Direction: 300°WNW
Pressure: 30.31"   Gusts: 23mph
Location:  48.8°N, 95.1°W
Report Text: KRRT 291413Z AUTO 30011G20KT 10SM BKN017 M15/M18 A3031 RMK AO2
Loading
Personal Weather Stations






























Interactive Weather Map New forecast layout! Learn more

10-Day Weather Forecast

Advertisements
Track Severe Weather on mobile